sensor_id;sensor_type;location;lat;lon;timestamp;P1;durP1;ratioP1;P2;durP2;ratioP2
3022;SDS011;1521;53.584;9.938;2023-05-21T00:02:09;6.40;;;3.20;;
3022;SDS011;1521;53.584;9.938;2023-05-21T00:04:39;8.87;;;3.50;;
3022;SDS011;1521;53.584;9.938;2023-05-21T00:07:05;11.10;;;2.80;;
3022;SDS011;1521;53.584;9.938;2023-05-21T00:09:32;7.70;;;3.20;;
3022;SDS011;1521;53.584;9.938;2023-05-21T00:11:58;7.13;;;3.17;;
3022;SDS011;1521;53.584;9.938;2023-05-21T00:14:23;6.30;;;3.00;;
3022;SDS011;1521;53.584;9.938;2023-05-21T00:16:49;7.20;;;3.97;;
3022;SDS011;1521;53.584;9.938;2023-05-21T00:19:15;5.43;;;2.90;;
3022;SDS011;1521;53.584;9.938;2023-05-21T00:21:40;11.63;;;2.90;;
3022;SDS011;1521;53.584;9.938;2023-05-21T00:24:06;5.43;;;2.90;;
3022;SDS011;1521;53.584;9.938;2023-05-21T00:26:32;2.87;;;2.57;;
3022;SDS011;1521;53.584;9.938;2023-05-21T00:28:57;5.17;;;2.57;;
3022;SDS011;1521;53.584;9.938;2023-05-21T00:31:23;5.33;;;2.87;;
3022;SDS011;1521;53.584;9.938;2023-05-21T00:33:48;5.40;;;3.27;;
3022;SDS011;1521;53.584;9.938;2023-05-21T00:36:14;8.60;;;3.30;;
3022;SDS011;1521;53.584;9.938;2023-05-21T00:38:40;6.47;;;3.43;;
3022;SDS011;1521;53.584;9.938;2023-05-21T00:41:09;6.13;;;3.20;;
3022;SDS011;1521;53.584;9.938;2023-05-21T00:43:36;4.10;;;2.63;;
3022;SDS011;1521;53.584;9.938;2023-05-21T00:46:05;3.70;;;2.77;;
3022;SDS011;1521;53.584;9.938;2023-05-21T00:48:31;5.70;;;3.00;;
3022;SDS011;1521;53.584;9.938;2023-05-21T00:50:57;4.60;;;2.80;;
3022;SDS011;1521;53.584;9.938;2023-05-21T00:53:23;6.87;;;2.87;;
3022;SDS011;1521;53.584;9.938;2023-05-21T00:55:49;6.50;;;3.00;;
3022;SDS011;1521;53.584;9.938;2023-05-21T00:58:15;5.77;;;2.80;;
3022;SDS011;1521;53.584;9.938;2023-05-21T01:00:42;4.17;;;2.73;;
3022;SDS011;1521;53.584;9.938;2023-05-21T01:03:07;6.90;;;3.50;;
3022;SDS011;1521;53.584;9.938;2023-05-21T01:05:34;10.07;;;3.70;;
3022;SDS011;1521;53.584;9.938;2023-05-21T01:08:00;6.67;;;3.70;;
3022;SDS011;1521;53.584;9.938;2023-05-21T01:10:26;6.03;;;3.20;;
3022;SDS011;1521;53.584;9.938;2023-05-21T01:12:53;5.97;;;3.03;;
3022;SDS011;1521;53.584;9.938;2023-05-21T01:15:21;7.13;;;3.40;;
3022;SDS011;1521;53.584;9.938;2023-05-21T01:17:47;4.30;;;2.73;;
3022;SDS011;1521;53.584;9.938;2023-05-21T01:20:14;5.13;;;3.10;;
3022;SDS011;1521;53.584;9.938;2023-05-21T01:22:50;7.73;;;3.10;;
3022;SDS011;1521;53.584;9.938;2023-05-21T01:25:20;5.13;;;3.17;;
3022;SDS011;1521;53.584;9.938;2023-05-21T01:27:49;7.77;;;3.10;;
3022;SDS011;1521;53.584;9.938;2023-05-21T01:30:15;6.33;;;2.90;;
3022;SDS011;1521;53.584;9.938;2023-05-21T01:35:14;27.13;;;4.80;;
3022;SDS011;1521;53.584;9.938;2023-05-21T01:37:51;9.00;;;3.60;;
3022;SDS011;1521;53.584;9.938;2023-05-21T01:42:49;8.60;;;3.20;;
3022;SDS011;1521;53.584;9.938;2023-05-21T01:45:15;4.70;;;2.30;;
3022;SDS011;1521;53.584;9.938;2023-05-21T01:47:45;5.43;;;3.03;;
3022;SDS011;1521;53.584;9.938;2023-05-21T01:50:13;6.77;;;2.90;;
3022;SDS011;1521;53.584;9.938;2023-05-21T01:52:47;5.57;;;3.17;;
3022;SDS011;1521;53.584;9.938;2023-05-21T01:55:13;10.30;;;3.50;;
3022;SDS011;1521;53.584;9.938;2023-05-21T01:57:39;4.40;;;2.97;;
3022;SDS011;1521;53.584;9.938;2023-05-21T02:00:05;4.17;;;2.70;;
3022;SDS011;1521;53.584;9.938;2023-05-21T02:02:31;5.30;;;2.57;;
3022;SDS011;1521;53.584;9.938;2023-05-21T02:04:57;5.20;;;3.37;;
3022;SDS011;1521;53.584;9.938;2023-05-21T02:07:22;8.23;;;3.17;;
3022;SDS011;1521;53.584;9.938;2023-05-21T02:09:48;5.60;;;2.80;;
3022;SDS011;1521;53.584;9.938;2023-05-21T02:12:14;7.37;;;3.43;;
3022;SDS011;1521;53.584;9.938;2023-05-21T02:14:39;7.77;;;3.10;;
3022;SDS011;1521;53.584;9.938;2023-05-21T02:17:05;8.60;;;2.97;;
3022;SDS011;1521;53.584;9.938;2023-05-21T02:19:32;6.80;;;3.27;;
3022;SDS011;1521;53.584;9.938;2023-05-21T02:21:57;7.43;;;2.97;;
3022;SDS011;1521;53.584;9.938;2023-05-21T02:24:23;8.90;;;3.40;;
3022;SDS011;1521;53.584;9.938;2023-05-21T02:26:48;6.57;;;2.90;;
3022;SDS011;1521;53.584;9.938;2023-05-21T02:29:15;5.80;;;3.07;;
3022;SDS011;1521;53.584;9.938;2023-05-21T02:31:41;6.43;;;3.20;;
3022;SDS011;1521;53.584;9.938;2023-05-21T02:34:07;6.20;;;3.53;;
3022;SDS011;1521;53.584;9.938;2023-05-21T02:36:32;6.83;;;3.47;;
3022;SDS011;1521;53.584;9.938;2023-05-21T02:39:00;7.03;;;3.13;;
3022;SDS011;1521;53.584;9.938;2023-05-21T02:41:25;6.60;;;3.20;;
3022;SDS011;1521;53.584;9.938;2023-05-21T02:43:51;7.10;;;3.67;;
3022;SDS011;1521;53.584;9.938;2023-05-21T02:46:16;6.43;;;3.70;;
3022;SDS011;1521;53.584;9.938;2023-05-21T02:48:42;11.30;;;3.70;;
3022;SDS011;1521;53.584;9.938;2023-05-21T02:51:08;8.60;;;3.80;;
3022;SDS011;1521;53.584;9.938;2023-05-21T02:53:33;8.10;;;3.50;;
3022;SDS011;1521;53.584;9.938;2023-05-21T02:55:59;8.53;;;3.70;;
3022;SDS011;1521;53.584;9.938;2023-05-21T02:58:25;16.67;;;3.83;;
3022;SDS011;1521;53.584;9.938;2023-05-21T03:00:51;5.73;;;3.10;;
3022;SDS011;1521;53.584;9.938;2023-05-21T03:03:17;12.83;;;3.70;;
3022;SDS011;1521;53.584;9.938;2023-05-21T03:05:43;10.37;;;4.40;;
3022;SDS011;1521;53.584;9.938;2023-05-21T03:08:10;5.23;;;3.30;;
3022;SDS011;1521;53.584;9.938;2023-05-21T03:10:35;5.90;;;3.10;;
3022;SDS011;1521;53.584;9.938;2023-05-21T03:13:01;7.30;;;2.97;;
3022;SDS011;1521;53.584;9.938;2023-05-21T03:15:28;7.83;;;4.13;;
3022;SDS011;1521;53.584;9.938;2023-05-21T03:17:57;6.77;;;3.60;;
3022;SDS011;1521;53.584;9.938;2023-05-21T03:20:23;12.80;;;4.90;;
3022;SDS011;1521;53.584;9.938;2023-05-21T03:22:49;7.30;;;4.27;;
3022;SDS011;1521;53.584;9.938;2023-05-21T03:25:14;5.80;;;3.70;;
3022;SDS011;1521;53.584;9.938;2023-05-21T03:27:40;7.37;;;3.80;;
3022;SDS011;1521;53.584;9.938;2023-05-21T03:30:05;9.03;;;4.43;;
3022;SDS011;1521;53.584;9.938;2023-05-21T03:32:31;7.80;;;3.93;;
3022;SDS011;1521;53.584;9.938;2023-05-21T03:35:01;5.90;;;3.83;;
3022;SDS011;1521;53.584;9.938;2023-05-21T03:37:28;9.70;;;4.07;;
3022;SDS011;1521;53.584;9.938;2023-05-21T03:39:54;13.00;;;4.10;;
3022;SDS011;1521;53.584;9.938;2023-05-21T03:42:19;8.20;;;4.50;;
3022;SDS011;1521;53.584;9.938;2023-05-21T03:44:45;7.80;;;4.40;;
3022;SDS011;1521;53.584;9.938;2023-05-21T03:47:11;10.73;;;3.97;;
3022;SDS011;1521;53.584;9.938;2023-05-21T03:49:36;6.13;;;4.23;;
3022;SDS011;1521;53.584;9.938;2023-05-21T03:52:02;7.70;;;4.20;;
3022;SDS011;1521;53.584;9.938;2023-05-21T03:54:27;9.90;;;4.30;;
3022;SDS011;1521;53.584;9.938;2023-05-21T03:56:53;15.10;;;4.67;;
3022;SDS011;1521;53.584;9.938;2023-05-21T03:59:19;10.30;;;4.20;;
3022;SDS011;1521;53.584;9.938;2023-05-21T04:01:44;13.13;;;4.93;;
3022;SDS011;1521;53.584;9.938;2023-05-21T04:04:10;11.00;;;4.97;;
3022;SDS011;1521;53.584;9.938;2023-05-21T04:06:35;11.40;;;4.63;;
3022;SDS011;1521;53.584;9.938;2023-05-21T04:09:02;15.87;;;4.40;;
3022;SDS011;1521;53.584;9.938;2023-05-21T04:11:28;10.53;;;4.30;;
3022;SDS011;1521;53.584;9.938;2023-05-21T04:13:55;11.70;;;5.13;;
3022;SDS011;1521;53.584;9.938;2023-05-21T04:16:21;12.40;;;5.17;;
3022;SDS011;1521;53.584;9.938;2023-05-21T04:18:48;8.37;;;4.60;;
3022;SDS011;1521;53.584;9.938;2023-05-21T04:21:14;15.30;;;5.03;;
3022;SDS011;1521;53.584;9.938;2023-05-21T04:23:40;13.20;;;4.73;;
3022;SDS011;1521;53.584;9.938;2023-05-21T04:26:05;11.30;;;5.63;;
3022;SDS011;1521;53.584;9.938;2023-05-21T04:28:31;11.17;;;5.30;;
3022;SDS011;1521;53.584;9.938;2023-05-21T04:30:57;7.60;;;3.80;;
3022;SDS011;1521;53.584;9.938;2023-05-21T04:33:23;12.33;;;4.30;;
3022;SDS011;1521;53.584;9.938;2023-05-21T04:35:49;12.53;;;4.60;;
3022;SDS011;1521;53.584;9.938;2023-05-21T04:38:18;8.90;;;4.43;;
3022;SDS011;1521;53.584;9.938;2023-05-21T04:40:48;8.63;;;4.87;;
3022;SDS011;1521;53.584;9.938;2023-05-21T04:43:17;10.33;;;4.70;;
3022;SDS011;1521;53.584;9.938;2023-05-21T04:45:49;10.27;;;4.63;;
3022;SDS011;1521;53.584;9.938;2023-05-21T04:48:15;9.53;;;4.23;;
3022;SDS011;1521;53.584;9.938;2023-05-21T04:50:42;11.30;;;5.37;;
3022;SDS011;1521;53.584;9.938;2023-05-21T04:53:07;11.50;;;5.77;;
3022;SDS011;1521;53.584;9.938;2023-05-21T04:55:33;9.70;;;4.40;;
3022;SDS011;1521;53.584;9.938;2023-05-21T04:58:04;13.20;;;5.40;;
3022;SDS011;1521;53.584;9.938;2023-05-21T05:00:31;13.70;;;5.47;;
3022;SDS011;1521;53.584;9.938;2023-05-21T05:02:57;8.70;;;4.70;;
3022;SDS011;1521;53.584;9.938;2023-05-21T05:05:23;10.60;;;5.50;;
3022;SDS011;1521;53.584;9.938;2023-05-21T05:07:48;8.83;;;4.73;;
3022;SDS011;1521;53.584;9.938;2023-05-21T05:10:14;9.10;;;5.50;;
3022;SDS011;1521;53.584;9.938;2023-05-21T05:12:40;11.47;;;5.87;;
3022;SDS011;1521;53.584;9.938;2023-05-21T05:15:05;11.77;;;5.80;;
3022;SDS011;1521;53.584;9.938;2023-05-21T05:17:31;9.73;;;5.33;;
3022;SDS011;1521;53.584;9.938;2023-05-21T05:19:58;9.17;;;4.90;;
3022;SDS011;1521;53.584;9.938;2023-05-21T05:22:24;9.27;;;5.10;;
3022;SDS011;1521;53.584;9.938;2023-05-21T05:24:49;10.30;;;4.57;;
3022;SDS011;1521;53.584;9.938;2023-05-21T05:27:15;7.20;;;4.43;;
3022;SDS011;1521;53.584;9.938;2023-05-21T05:29:42;9.57;;;5.17;;
3022;SDS011;1521;53.584;9.938;2023-05-21T05:32:08;10.43;;;5.07;;
3022;SDS011;1521;53.584;9.938;2023-05-21T05:34:34;11.50;;;5.40;;
3022;SDS011;1521;53.584;9.938;2023-05-21T05:37:01;13.40;;;5.40;;
3022;SDS011;1521;53.584;9.938;2023-05-21T05:39:26;9.17;;;5.90;;
3022;SDS011;1521;53.584;9.938;2023-05-21T05:41:52;9.20;;;5.33;;
3022;SDS011;1521;53.584;9.938;2023-05-21T05:44:18;8.57;;;5.33;;
3022;SDS011;1521;53.584;9.938;2023-05-21T05:46:43;8.70;;;5.17;;
3022;SDS011;1521;53.584;9.938;2023-05-21T05:49:09;10.20;;;5.73;;
3022;SDS011;1521;53.584;9.938;2023-05-21T05:51:35;7.70;;;5.23;;
3022;SDS011;1521;53.584;9.938;2023-05-21T05:54:01;11.30;;;5.93;;
3022;SDS011;1521;53.584;9.938;2023-05-21T05:56:26;10.67;;;5.60;;
3022;SDS011;1521;53.584;9.938;2023-05-21T05:58:52;10.23;;;5.43;;
3022;SDS011;1521;53.584;9.938;2023-05-21T06:01:17;12.20;;;5.67;;
3022;SDS011;1521;53.584;9.938;2023-05-21T06:03:43;8.10;;;5.50;;
3022;SDS011;1521;53.584;9.938;2023-05-21T06:06:09;7.87;;;5.33;;
3022;SDS011;1521;53.584;9.938;2023-05-21T06:08:35;11.00;;;5.97;;
3022;SDS011;1521;53.584;9.938;2023-05-21T06:11:01;10.23;;;6.30;;
3022;SDS011;1521;53.584;9.938;2023-05-21T06:13:27;11.20;;;6.03;;
3022;SDS011;1521;53.584;9.938;2023-05-21T06:15:53;11.07;;;5.63;;
3022;SDS011;1521;53.584;9.938;2023-05-21T06:18:18;8.20;;;5.87;;
3022;SDS011;1521;53.584;9.938;2023-05-21T06:20:44;9.73;;;5.33;;
3022;SDS011;1521;53.584;9.938;2023-05-21T06:23:09;12.40;;;6.43;;
3022;SDS011;1521;53.584;9.938;2023-05-21T06:25:35;8.07;;;6.00;;
3022;SDS011;1521;53.584;9.938;2023-05-21T06:28:01;8.20;;;5.97;;
3022;SDS011;1521;53.584;9.938;2023-05-21T06:30:27;8.77;;;5.50;;
3022;SDS011;1521;53.584;9.938;2023-05-21T06:32:52;14.80;;;7.20;;
3022;SDS011;1521;53.584;9.938;2023-05-21T06:35:18;9.07;;;6.10;;
3022;SDS011;1521;53.584;9.938;2023-05-21T06:37:44;9.77;;;6.13;;
3022;SDS011;1521;53.584;9.938;2023-05-21T06:40:10;10.67;;;7.03;;
3022;SDS011;1521;53.584;9.938;2023-05-21T06:42:35;11.43;;;6.33;;
3022;SDS011;1521;53.584;9.938;2023-05-21T06:45:01;14.67;;;6.60;;
3022;SDS011;1521;53.584;9.938;2023-05-21T06:47:27;10.17;;;6.00;;
3022;SDS011;1521;53.584;9.938;2023-05-21T06:49:52;8.53;;;6.50;;
3022;SDS011;1521;53.584;9.938;2023-05-21T06:52:18;10.33;;;5.50;;
3022;SDS011;1521;53.584;9.938;2023-05-21T06:54:43;12.63;;;7.40;;
3022;SDS011;1521;53.584;9.938;2023-05-21T06:57:09;19.40;;;8.37;;
3022;SDS011;1521;53.584;9.938;2023-05-21T06:59:35;9.53;;;6.90;;
3022;SDS011;1521;53.584;9.938;2023-05-21T07:02:00;11.23;;;7.73;;
3022;SDS011;1521;53.584;9.938;2023-05-21T07:04:26;13.47;;;8.37;;
3022;SDS011;1521;53.584;9.938;2023-05-21T07:06:52;11.50;;;8.00;;
3022;SDS011;1521;53.584;9.938;2023-05-21T07:09:18;13.73;;;6.50;;
3022;SDS011;1521;53.584;9.938;2023-05-21T07:11:44;9.57;;;7.43;;
3022;SDS011;1521;53.584;9.938;2023-05-21T07:14:09;12.20;;;7.43;;
3022;SDS011;1521;53.584;9.938;2023-05-21T07:16:35;12.20;;;8.07;;
3022;SDS011;1521;53.584;9.938;2023-05-21T07:19:01;11.90;;;8.67;;
3022;SDS011;1521;53.584;9.938;2023-05-21T07:21:26;11.50;;;8.03;;
3022;SDS011;1521;53.584;9.938;2023-05-21T07:23:52;11.43;;;7.97;;
3022;SDS011;1521;53.584;9.938;2023-05-21T07:26:17;15.43;;;7.70;;
3022;SDS011;1521;53.584;9.938;2023-05-21T07:28:43;16.63;;;9.13;;
3022;SDS011;1521;53.584;9.938;2023-05-21T07:31:09;12.63;;;9.67;;
3022;SDS011;1521;53.584;9.938;2023-05-21T07:33:36;14.00;;;9.20;;
3022;SDS011;1521;53.584;9.938;2023-05-21T07:36:02;16.93;;;9.30;;
3022;SDS011;1521;53.584;9.938;2023-05-21T07:38:28;11.53;;;9.40;;
3022;SDS011;1521;53.584;9.938;2023-05-21T07:40:53;12.10;;;9.20;;
3022;SDS011;1521;53.584;9.938;2023-05-21T07:43:19;14.03;;;8.83;;
3022;SDS011;1521;53.584;9.938;2023-05-21T07:45:45;13.33;;;9.57;;
3022;SDS011;1521;53.584;9.938;2023-05-21T07:48:10;12.37;;;8.63;;
3022;SDS011;1521;53.584;9.938;2023-05-21T07:50:36;12.70;;;8.90;;
3022;SDS011;1521;53.584;9.938;2023-05-21T07:53:02;17.00;;;10.33;;
3022;SDS011;1521;53.584;9.938;2023-05-21T07:55:27;13.77;;;9.87;;
3022;SDS011;1521;53.584;9.938;2023-05-21T07:57:53;14.00;;;10.60;;
3022;SDS011;1521;53.584;9.938;2023-05-21T08:00:18;11.57;;;9.50;;
3022;SDS011;1521;53.584;9.938;2023-05-21T08:02:46;17.73;;;11.97;;
3022;SDS011;1521;53.584;9.938;2023-05-21T08:05:12;13.60;;;9.60;;
3022;SDS011;1521;53.584;9.938;2023-05-21T08:07:37;14.80;;;10.33;;
3022;SDS011;1521;53.584;9.938;2023-05-21T08:10:03;16.77;;;12.00;;
3022;SDS011;1521;53.584;9.938;2023-05-21T08:12:29;14.80;;;11.27;;
3022;SDS011;1521;53.584;9.938;2023-05-21T08:14:58;17.53;;;12.10;;
3022;SDS011;1521;53.584;9.938;2023-05-21T08:17:23;15.33;;;11.87;;
3022;SDS011;1521;53.584;9.938;2023-05-21T08:19:49;14.90;;;10.77;;
3022;SDS011;1521;53.584;9.938;2023-05-21T08:22:14;19.10;;;11.63;;
3022;SDS011;1521;53.584;9.938;2023-05-21T08:24:40;13.43;;;9.50;;
3022;SDS011;1521;53.584;9.938;2023-05-21T08:27:06;14.50;;;10.87;;
3022;SDS011;1521;53.584;9.938;2023-05-21T08:29:31;16.50;;;11.10;;
3022;SDS011;1521;53.584;9.938;2023-05-21T08:31:57;15.60;;;12.20;;
3022;SDS011;1521;53.584;9.938;2023-05-21T08:34:23;14.80;;;11.87;;
3022;SDS011;1521;53.584;9.938;2023-05-21T08:36:48;15.70;;;11.50;;
3022;SDS011;1521;53.584;9.938;2023-05-21T08:39:14;19.53;;;12.53;;
3022;SDS011;1521;53.584;9.938;2023-05-21T08:41:40;18.70;;;13.90;;
3022;SDS011;1521;53.584;9.938;2023-05-21T08:44:10;16.80;;;12.93;;
3022;SDS011;1521;53.584;9.938;2023-05-21T08:46:38;14.37;;;12.17;;
3022;SDS011;1521;53.584;9.938;2023-05-21T08:49:05;16.87;;;11.90;;
3022;SDS011;1521;53.584;9.938;2023-05-21T08:51:36;14.43;;;11.87;;
3022;SDS011;1521;53.584;9.938;2023-05-21T08:54:03;16.90;;;12.70;;
3022;SDS011;1521;53.584;9.938;2023-05-21T08:56:32;16.80;;;12.70;;
3022;SDS011;1521;53.584;9.938;2023-05-21T08:58:58;24.07;;;13.70;;
3022;SDS011;1521;53.584;9.938;2023-05-21T09:01:25;14.03;;;11.67;;
3022;SDS011;1521;53.584;9.938;2023-05-21T09:03:51;15.40;;;11.73;;
3022;SDS011;1521;53.584;9.938;2023-05-21T09:06:21;14.30;;;12.77;;
3022;SDS011;1521;53.584;9.938;2023-05-21T09:08:55;13.30;;;11.70;;
3022;SDS011;1521;53.584;9.938;2023-05-21T09:11:38;19.80;;;12.80;;
3022;SDS011;1521;53.584;9.938;2023-05-21T09:14:06;18.27;;;11.70;;
3022;SDS011;1521;53.584;9.938;2023-05-21T09:16:32;15.50;;;12.00;;
3022;SDS011;1521;53.584;9.938;2023-05-21T09:18:57;16.00;;;12.70;;
3022;SDS011;1521;53.584;9.938;2023-05-21T09:21:24;17.23;;;12.67;;
3022;SDS011;1521;53.584;9.938;2023-05-21T09:23:57;17.03;;;13.33;;
3022;SDS011;1521;53.584;9.938;2023-05-21T09:26:24;14.40;;;12.90;;
3022;SDS011;1521;53.584;9.938;2023-05-21T09:28:50;19.00;;;14.13;;
3022;SDS011;1521;53.584;9.938;2023-05-21T09:31:21;18.00;;;14.90;;
3022;SDS011;1521;53.584;9.938;2023-05-21T09:33:48;15.93;;;13.93;;
3022;SDS011;1521;53.584;9.938;2023-05-21T09:36:14;16.70;;;12.63;;
3022;SDS011;1521;53.584;9.938;2023-05-21T09:38:41;20.60;;;13.27;;
3022;SDS011;1521;53.584;9.938;2023-05-21T09:41:09;18.00;;;13.20;;
3022;SDS011;1521;53.584;9.938;2023-05-21T09:43:35;17.47;;;13.00;;
3022;SDS011;1521;53.584;9.938;2023-05-21T09:46:00;16.80;;;13.40;;
3022;SDS011;1521;53.584;9.938;2023-05-21T09:48:42;15.37;;;13.13;;
3022;SDS011;1521;53.584;9.938;2023-05-21T09:51:17;21.37;;;13.30;;
3022;SDS011;1521;53.584;9.938;2023-05-21T09:53:56;19.03;;;12.10;;
3022;SDS011;1521;53.584;9.938;2023-05-21T09:56:27;17.97;;;13.17;;
3022;SDS011;1521;53.584;9.938;2023-05-21T09:58:56;17.80;;;13.33;;
3022;SDS011;1521;53.584;9.938;2023-05-21T10:01:24;16.83;;;12.83;;
3022;SDS011;1521;53.584;9.938;2023-05-21T10:03:54;16.93;;;14.20;;
3022;SDS011;1521;53.584;9.938;2023-05-21T10:06:22;19.87;;;13.90;;
3022;SDS011;1521;53.584;9.938;2023-05-21T10:08:51;18.07;;;13.43;;
3022;SDS011;1521;53.584;9.938;2023-05-21T10:11:20;17.67;;;14.33;;
3022;SDS011;1521;53.584;9.938;2023-05-21T10:14:00;23.97;;;14.40;;
3022;SDS011;1521;53.584;9.938;2023-05-21T10:16:33;19.37;;;12.43;;
3022;SDS011;1521;53.584;9.938;2023-05-21T10:19:00;20.93;;;13.50;;
3022;SDS011;1521;53.584;9.938;2023-05-21T10:21:27;15.60;;;13.70;;
3022;SDS011;1521;53.584;9.938;2023-05-21T10:23:54;16.93;;;13.80;;
3022;SDS011;1521;53.584;9.938;2023-05-21T10:26:22;22.43;;;13.63;;
3022;SDS011;1521;53.584;9.938;2023-05-21T10:28:48;15.13;;;13.40;;
3022;SDS011;1521;53.584;9.938;2023-05-21T10:31:18;16.57;;;13.70;;
3022;SDS011;1521;53.584;9.938;2023-05-21T10:33:44;18.03;;;13.10;;
3022;SDS011;1521;53.584;9.938;2023-05-21T10:36:10;15.13;;;13.53;;
3022;SDS011;1521;53.584;9.938;2023-05-21T10:38:36;16.40;;;12.93;;
3022;SDS011;1521;53.584;9.938;2023-05-21T10:41:02;15.17;;;13.50;;
3022;SDS011;1521;53.584;9.938;2023-05-21T10:46:31;15.33;;;11.30;;
3022;SDS011;1521;53.584;9.938;2023-05-21T10:59:42;14.37;;;11.80;;
3022;SDS011;1521;53.584;9.938;2023-05-21T11:02:11;14.87;;;12.00;;
3022;SDS011;1521;53.584;9.938;2023-05-21T11:04:39;13.97;;;11.30;;
3022;SDS011;1521;53.584;9.938;2023-05-21T11:07:09;13.57;;;10.80;;
3022;SDS011;1521;53.584;9.938;2023-05-21T11:09:36;15.77;;;11.10;;
3022;SDS011;1521;53.584;9.938;2023-05-21T11:12:02;12.07;;;10.77;;
3022;SDS011;1521;53.584;9.938;2023-05-21T11:14:32;13.73;;;11.10;;
3022;SDS011;1521;53.584;9.938;2023-05-21T11:19:37;14.10;;;10.80;;
3022;SDS011;1521;53.584;9.938;2023-05-21T11:22:21;14.33;;;9.70;;
3022;SDS011;1521;53.584;9.938;2023-05-21T11:24:48;14.33;;;10.20;;
3022;SDS011;1521;53.584;9.938;2023-05-21T11:32:39;13.47;;;10.60;;
3022;SDS011;1521;53.584;9.938;2023-05-21T11:35:26;11.23;;;10.13;;
3022;SDS011;1521;53.584;9.938;2023-05-21T11:37:54;11.80;;;10.60;;
3022;SDS011;1521;53.584;9.938;2023-05-21T11:40:23;13.60;;;10.37;;
3022;SDS011;1521;53.584;9.938;2023-05-21T11:42:51;15.87;;;11.20;;
3022;SDS011;1521;53.584;9.938;2023-05-21T11:45:18;10.23;;;9.10;;
3022;SDS011;1521;53.584;9.938;2023-05-21T11:47:46;12.17;;;10.20;;
3022;SDS011;1521;53.584;9.938;2023-05-21T11:50:13;13.53;;;10.50;;
3022;SDS011;1521;53.584;9.938;2023-05-21T11:52:39;10.50;;;9.40;;
3022;SDS011;1521;53.584;9.938;2023-05-21T11:55:06;12.70;;;11.40;;
3022;SDS011;1521;53.584;9.938;2023-05-21T11:57:32;14.50;;;9.40;;
3022;SDS011;1521;53.584;9.938;2023-05-21T11:59:59;13.57;;;10.20;;
3022;SDS011;1521;53.584;9.938;2023-05-21T12:02:26;13.13;;;9.10;;
3022;SDS011;1521;53.584;9.938;2023-05-21T12:04:56;13.73;;;10.10;;
3022;SDS011;1521;53.584;9.938;2023-05-21T12:07:27;11.67;;;9.30;;
3022;SDS011;1521;53.584;9.938;2023-05-21T12:09:53;12.37;;;10.20;;
3022;SDS011;1521;53.584;9.938;2023-05-21T12:12:20;10.87;;;9.60;;
3022;SDS011;1521;53.584;9.938;2023-05-21T12:14:48;13.40;;;9.40;;
3022;SDS011;1521;53.584;9.938;2023-05-21T12:17:15;11.50;;;9.03;;
3022;SDS011;1521;53.584;9.938;2023-05-21T12:19:46;13.33;;;10.37;;
3022;SDS011;1521;53.584;9.938;2023-05-21T12:22:12;14.80;;;10.07;;
3022;SDS011;1521;53.584;9.938;2023-05-21T12:24:41;15.10;;;11.33;;
3022;SDS011;1521;53.584;9.938;2023-05-21T12:27:08;11.73;;;10.50;;
3022;SDS011;1521;53.584;9.938;2023-05-21T12:29:36;13.27;;;9.77;;
3022;SDS011;1521;53.584;9.938;2023-05-21T12:32:07;15.63;;;11.90;;
3022;SDS011;1521;53.584;9.938;2023-05-21T12:34:37;12.63;;;11.00;;
3022;SDS011;1521;53.584;9.938;2023-05-21T12:37:26;11.90;;;10.50;;
3022;SDS011;1521;53.584;9.938;2023-05-21T12:39:59;14.43;;;10.83;;
3022;SDS011;1521;53.584;9.938;2023-05-21T12:42:29;13.13;;;10.80;;
3022;SDS011;1521;53.584;9.938;2023-05-21T12:44:59;15.63;;;11.83;;
3022;SDS011;1521;53.584;9.938;2023-05-21T12:47:26;14.50;;;11.40;;
3022;SDS011;1521;53.584;9.938;2023-05-21T12:49:53;15.70;;;10.80;;
3022;SDS011;1521;53.584;9.938;2023-05-21T12:52:22;15.67;;;12.00;;
3022;SDS011;1521;53.584;9.938;2023-05-21T12:54:49;12.90;;;11.50;;
3022;SDS011;1521;53.584;9.938;2023-05-21T12:57:20;14.30;;;11.80;;
3022;SDS011;1521;53.584;9.938;2023-05-21T13:02:21;12.87;;;11.43;;
3022;SDS011;1521;53.584;9.938;2023-05-21T13:07:22;14.70;;;10.70;;
3022;SDS011;1521;53.584;9.938;2023-05-21T13:09:48;15.03;;;11.10;;
3022;SDS011;1521;53.584;9.938;2023-05-21T13:12:17;14.00;;;10.07;;
3022;SDS011;1521;53.584;9.938;2023-05-21T13:14:46;12.83;;;10.27;;
3022;SDS011;1521;53.584;9.938;2023-05-21T13:17:13;14.80;;;11.07;;
3022;SDS011;1521;53.584;9.938;2023-05-21T13:19:39;14.47;;;12.27;;
3022;SDS011;1521;53.584;9.938;2023-05-21T13:22:05;13.80;;;11.30;;
3022;SDS011;1521;53.584;9.938;2023-05-21T13:24:31;16.30;;;11.03;;
3022;SDS011;1521;53.584;9.938;2023-05-21T13:26:57;16.40;;;11.20;;
3022;SDS011;1521;53.584;9.938;2023-05-21T13:29:23;12.37;;;10.63;;
3022;SDS011;1521;53.584;9.938;2023-05-21T13:31:48;13.63;;;11.30;;
3022;SDS011;1521;53.584;9.938;2023-05-21T13:34:14;18.40;;;11.60;;
3022;SDS011;1521;53.584;9.938;2023-05-21T13:36:39;12.87;;;10.83;;
3022;SDS011;1521;53.584;9.938;2023-05-21T13:39:05;18.47;;;11.37;;
3022;SDS011;1521;53.584;9.938;2023-05-21T13:41:31;16.07;;;11.30;;
3022;SDS011;1521;53.584;9.938;2023-05-21T13:43:57;16.30;;;11.60;;
3022;SDS011;1521;53.584;9.938;2023-05-21T13:46:23;13.13;;;11.33;;
3022;SDS011;1521;53.584;9.938;2023-05-21T13:48:48;15.50;;;10.77;;
3022;SDS011;1521;53.584;9.938;2023-05-21T13:51:14;12.73;;;10.93;;
3022;SDS011;1521;53.584;9.938;2023-05-21T13:53:40;13.47;;;10.20;;
3022;SDS011;1521;53.584;9.938;2023-05-21T13:56:05;13.50;;;11.40;;
3022;SDS011;1521;53.584;9.938;2023-05-21T13:58:31;12.60;;;10.83;;
3022;SDS011;1521;53.584;9.938;2023-05-21T14:00:59;12.77;;;11.00;;
3022;SDS011;1521;53.584;9.938;2023-05-21T14:03:25;12.20;;;10.50;;
3022;SDS011;1521;53.584;9.938;2023-05-21T14:05:51;11.27;;;10.10;;
3022;SDS011;1521;53.584;9.938;2023-05-21T14:08:18;12.97;;;10.50;;
3022;SDS011;1521;53.584;9.938;2023-05-21T14:10:44;15.77;;;11.13;;
3022;SDS011;1521;53.584;9.938;2023-05-21T14:13:11;13.50;;;10.10;;
3022;SDS011;1521;53.584;9.938;2023-05-21T14:15:37;12.87;;;10.80;;
3022;SDS011;1521;53.584;9.938;2023-05-21T14:18:03;19.70;;;11.23;;
3022;SDS011;1521;53.584;9.938;2023-05-21T14:20:32;13.60;;;10.43;;
3022;SDS011;1521;53.584;9.938;2023-05-21T14:22:57;12.20;;;10.50;;
3022;SDS011;1521;53.584;9.938;2023-05-21T14:25:23;15.97;;;9.90;;
3022;SDS011;1521;53.584;9.938;2023-05-21T14:27:49;18.47;;;11.17;;
3022;SDS011;1521;53.584;9.938;2023-05-21T14:30:14;15.80;;;10.57;;
3022;SDS011;1521;53.584;9.938;2023-05-21T14:32:40;15.33;;;9.67;;
3022;SDS011;1521;53.584;9.938;2023-05-21T14:35:06;13.73;;;9.93;;
3022;SDS011;1521;53.584;9.938;2023-05-21T14:37:31;11.80;;;10.60;;
3022;SDS011;1521;53.584;9.938;2023-05-21T14:39:57;13.90;;;10.50;;
3022;SDS011;1521;53.584;9.938;2023-05-21T14:42:23;12.73;;;10.10;;
3022;SDS011;1521;53.584;9.938;2023-05-21T14:44:48;10.70;;;9.60;;
3022;SDS011;1521;53.584;9.938;2023-05-21T14:47:14;14.73;;;9.60;;
3022;SDS011;1521;53.584;9.938;2023-05-21T14:49:39;12.87;;;9.77;;
3022;SDS011;1521;53.584;9.938;2023-05-21T14:52:05;13.33;;;9.87;;
3022;SDS011;1521;53.584;9.938;2023-05-21T14:54:31;11.10;;;9.43;;
3022;SDS011;1521;53.584;9.938;2023-05-21T14:56:56;12.70;;;9.07;;
3022;SDS011;1521;53.584;9.938;2023-05-21T14:59:22;12.90;;;9.90;;
3022;SDS011;1521;53.584;9.938;2023-05-21T15:01:47;11.13;;;9.30;;
3022;SDS011;1521;53.584;9.938;2023-05-21T15:04:13;14.90;;;9.13;;
3022;SDS011;1521;53.584;9.938;2023-05-21T15:06:39;9.50;;;8.50;;
3022;SDS011;1521;53.584;9.938;2023-05-21T15:09:05;12.40;;;9.30;;
3022;SDS011;1521;53.584;9.938;2023-05-21T15:11:31;13.20;;;9.50;;
3022;SDS011;1521;53.584;9.938;2023-05-21T15:13:58;17.20;;;9.03;;
3022;SDS011;1521;53.584;9.938;2023-05-21T15:16:23;10.67;;;9.30;;
3022;SDS011;1521;53.584;9.938;2023-05-21T15:18:49;11.03;;;8.60;;
3022;SDS011;1521;53.584;9.938;2023-05-21T15:21:15;12.20;;;9.40;;
3022;SDS011;1521;53.584;9.938;2023-05-21T15:23:40;11.27;;;9.30;;
3022;SDS011;1521;53.584;9.938;2023-05-21T15:26:06;11.33;;;9.50;;
3022;SDS011;1521;53.584;9.938;2023-05-21T15:28:33;11.37;;;9.50;;
3022;SDS011;1521;53.584;9.938;2023-05-21T15:30:58;12.87;;;9.33;;